Time,TemperatureF,DewpointF,PressureIn,WindDirection,WindDirectionDegrees,WindSpeedMPH,WindSpeedGustMPH,Humidity,HourlyPrecipIn,Conditions,Clouds,dailyrainin,SoftwareType,DateUTC
2013-04-10 00:03:00,52.0,45.0,-100.00,South,175,1.0,2.0,78,0.00,,,-99.99,,2013-04-10 04:03:00,
2013-04-10 00:13:00,51.0,45.0,-100.00,SW,220,1.0,4.0,79,0.00,,,-99.99,,2013-04-10 04:13:00,
2013-04-10 00:23:00,51.0,45.0,-100.00,SW,225,0.0,3.0,80,0.00,,,-99.99,,2013-04-10 04:23:00,
2013-04-10 00:33:00,51.0,46.0,-100.00,WNW,295,0.0,3.0,80,0.00,,,-99.99,,2013-04-10 04:33:00,
2013-04-10 00:43:00,52.0,46.0,-100.00,ESE,105,0.0,2.0,80,0.00,,,-99.99,,2013-04-10 04:43:00,
2013-04-10 00:52:00,52.0,46.0,-100.00,ESE,105,0.0,2.0,80,0.00,,,-99.99,,2013-04-10 04:52:00,
2013-04-10 01:03:00,53.0,47.0,-100.00,SW,230,0.0,2.0,81,0.00,,,-99.99,,2013-04-10 05:03:00,
2013-04-10 01:13:00,53.0,48.0,-100.00,WNW,300,1.0,4.0,81,0.00,,,-99.99,,2013-04-10 05:13:00,
2013-04-10 01:23:00,53.0,48.0,-100.00,NNW,345,1.0,4.0,81,0.00,,,-99.99,,2013-04-10 05:23:00,
2013-04-10 01:33:00,53.0,48.0,-100.00,NNW,345,1.0,4.0,81,0.00,,,-99.99,,2013-04-10 05:33:00,
2013-04-10 01:42:00,54.0,48.0,-100.00,NNW,330,0.0,1.0,80,0.00,,,-99.99,,2013-04-10 05:42:00,
2013-04-10 01:53:00,55.0,48.0,-100.00,NNE,15,1.0,2.0,79,0.00,,,-99.99,,2013-04-10 05:53:00,
2013-04-10 02:03:00,55.0,49.0,-100.00,North,10,0.0,1.0,79,0.00,,,-99.99,,2013-04-10 06:03:00,
2013-04-10 02:12:00,55.0,49.0,-100.00,North,10,0.0,1.0,79,0.00,,,-99.99,,2013-04-10 06:12:00,
2013-04-10 02:22:00,56.0,50.0,-100.00,East,80,3.0,4.0,80,0.00,,,-99.99,,2013-04-10 06:22:00,
2013-04-10 02:32:00,57.0,51.0,-100.00,ENE,70,3.0,4.0,81,0.00,,,-99.99,,2013-04-10 06:32:00,
2013-04-10 02:42:00,58.0,52.0,-100.00,East,85,6.0,7.0,82,0.00,,,-99.99,,2013-04-10 06:42:00,
2013-04-10 02:52:00,56.0,51.0,-100.00,East,90,9.0,11.0,82,0.00,,,-99.99,,2013-04-10 06:52:00,
2013-04-10 03:02:00,55.0,50.0,-100.00,East,100,6.0,9.0,84,0.00,,,-99.99,,2013-04-10 07:02:00,
2013-04-10 03:12:00,54.0,50.0,-100.00,East,100,2.0,7.0,86,0.55,,,-99.99,,2013-04-10 07:12:00,
2013-04-10 03:22:00,53.0,50.0,-100.00,South,170,0.0,3.0,89,0.55,,,-99.99,,2013-04-10 07:22:00,
2013-04-10 03:32:00,53.0,50.0,-100.00,ESE,115,0.0,2.0,90,0.00,,,-99.99,,2013-04-10 07:32:00,
2013-04-10 03:42:00,53.0,50.0,-100.00,SSE,150,1.0,4.0,91,0.00,,,-99.99,,2013-04-10 07:42:00,
2013-04-10 03:52:00,51.0,50.0,-100.00,SSE,155,1.0,6.0,93,0.00,,,-99.99,,2013-04-10 07:52:00,
2013-04-10 04:02:00,50.0,49.0,-100.00,SE,140,4.0,6.0,94,0.00,,,-99.99,,2013-04-10 08:02:00,
2013-04-10 04:12:00,49.0,48.0,-100.00,SE,140,4.0,7.0,95,0.00,,,-99.99,,2013-04-10 08:12:00,
2013-04-10 04:22:00,49.0,48.0,-100.00,South,175,4.0,6.0,95,0.00,,,-99.99,,2013-04-10 08:22:00,
2013-04-10 04:32:00,49.0,48.0,-100.00,South,175,2.0,5.0,96,0.00,,,-99.99,,2013-04-10 08:32:00,
2013-04-10 04:42:00,49.0,48.0,-100.00,South,190,3.0,4.0,97,0.00,,,-99.99,,2013-04-10 08:42:00,
2013-04-10 04:52:00,49.0,48.0,-100.00,SSE,155,2.0,4.0,97,0.00,,,-99.99,,2013-04-10 08:52:00,
2013-04-10 05:02:00,49.0,48.0,-100.00,SSE,155,1.0,6.0,97,0.00,,,-99.99,,2013-04-10 09:02:00,
2013-04-10 05:12:00,49.0,48.0,-100.00,South,170,0.0,4.0,97,0.00,,,-99.99,,2013-04-10 09:12:00,
2013-04-10 05:22:00,49.0,48.0,-100.00,SW,215,4.0,6.0,97,0.00,,,-99.99,,2013-04-10 09:22:00,
2013-04-10 05:32:00,49.0,48.0,-100.00,SW,220,2.0,4.0,97,0.00,,,-99.99,,2013-04-10 09:32:00,
2013-04-10 05:43:00,49.0,48.0,-100.00,SW,220,2.0,6.0,97,0.00,,,-99.99,,2013-04-10 09:43:00,
2013-04-10 05:52:00,49.0,48.0,-100.00,SW,225,4.0,6.0,97,0.00,,,-99.99,,2013-04-10 09:52:00,
2013-04-10 06:03:00,49.0,48.0,-100.00,WSW,245,4.0,6.0,97,0.00,,,-99.99,,2013-04-10 10:03:00,
2013-04-10 06:13:00,49.0,48.0,-100.00,WSW,245,4.0,6.0,97,0.00,,,-99.99,,2013-04-10 10:13:00,
2013-04-10 06:23:00,49.0,48.0,-100.00,WSW,240,3.0,6.0,97,0.00,,,-99.99,,2013-04-10 10:23:00,
2013-04-10 06:33:00,49.0,48.0,-100.00,WNW,300,4.0,6.0,97,0.00,,,-99.99,,2013-04-10 10:33:00,
2013-04-10 06:43:00,49.0,48.0,-100.00,WNW,295,3.0,6.0,97,0.00,,,-99.99,,2013-04-10 10:43:00,
2013-04-10 06:52:00,50.0,49.0,-100.00,WNW,300,6.0,7.0,97,0.00,,,-99.99,,2013-04-10 10:52:00,
2013-04-10 07:02:00,50.0,50.0,-100.00,NW,305,7.0,9.0,98,0.00,,,-99.99,,2013-04-10 11:02:00,
2013-04-10 07:12:00,50.0,50.0,-100.00,NW,315,8.0,9.0,98,0.00,,,-99.99,,2013-04-10 11:12:00,
2013-04-10 07:22:00,51.0,51.0,-100.00,WNW,300,8.0,11.0,98,0.00,,,-99.99,,2013-04-10 11:22:00,
2013-04-10 07:32:00,52.0,51.0,-100.00,NW,305,6.0,9.0,98,0.00,,,-99.99,,2013-04-10 11:32:00,
2013-04-10 07:42:00,52.0,51.0,-100.00,WNW,300,7.0,9.0,98,0.00,,,-99.99,,2013-04-10 11:42:00,
2013-04-10 07:52:00,52.0,52.0,-100.00,WNW,300,7.0,11.0,97,0.00,,,-99.99,,2013-04-10 11:52:00,
2013-04-10 08:03:00,53.0,52.0,-100.00,WNW,295,7.0,10.0,97,0.00,,,-99.99,,2013-04-10 12:03:00,
2013-04-10 08:12:00,53.0,53.0,-100.00,WNW,290,7.0,11.0,97,0.55,,,-99.99,,2013-04-10 12:12:00,
2013-04-10 08:23:00,53.0,53.0,-100.00,WNW,285,7.0,9.0,97,0.00,,,-99.99,,2013-04-10 12:23:00,
2013-04-10 08:33:00,54.0,53.0,-100.00,WNW,295,6.0,8.0,97,0.00,,,-99.99,,2013-04-10 12:33:00,
2013-04-10 08:42:00,55.0,54.0,-100.00,WNW,295,6.0,9.0,97,0.00,,,-99.99,,2013-04-10 12:42:00,
2013-04-10 08:52:00,55.0,54.0,-100.00,WNW,295,6.0,9.0,96,0.00,,,-99.99,,2013-04-10 12:52:00,
2013-04-10 09:02:00,56.0,55.0,-100.00,NW,310,6.0,9.0,95,0.00,,,-99.99,,2013-04-10 13:02:00,
2013-04-10 09:12:00,56.0,55.0,-100.00,WNW,295,7.0,9.0,92,0.00,,,-99.99,,2013-04-10 13:12:00,
2013-04-10 09:23:00,57.0,54.0,-100.00,NW,305,7.0,11.0,89,0.00,,,-99.99,,2013-04-10 13:23:00,
2013-04-10 09:32:00,58.0,54.0,-100.00,WNW,290,6.0,9.0,87,0.00,,,-99.99,,2013-04-10 13:32:00,
2013-04-10 09:43:00,58.0,54.0,-100.00,WNW,295,6.0,7.0,86,0.00,,,-99.99,,2013-04-10 13:43:00,
2013-04-10 09:52:00,58.0,54.0,-100.00,West,280,6.0,7.0,85,0.00,,,-99.99,,2013-04-10 13:52:00,
2013-04-10 10:02:00,58.0,54.0,-100.00,West,280,6.0,7.0,85,0.00,,,-99.99,,2013-04-10 14:02:00,
2013-04-10 10:12:00,59.0,55.0,-100.00,West,275,4.0,6.0,83,0.00,,,-99.99,,2013-04-10 14:12:00,
2013-04-10 10:22:00,60.0,54.0,-100.00,WNW,285,4.0,7.0,82,0.00,,,-99.99,,2013-04-10 14:22:00,
2013-04-10 10:33:00,60.0,55.0,-100.00,West,280,4.0,6.0,83,0.00,,,-99.99,,2013-04-10 14:33:00,
2013-04-10 10:42:00,60.0,55.0,-100.00,West,270,4.0,6.0,83,0.00,,,-99.99,,2013-04-10 14:42:00,
2013-04-10 10:52:00,60.0,55.0,-100.00,East,95,9.0,13.0,84,0.00,,,-99.99,,2013-04-10 14:52:00,
2013-04-10 11:03:00,59.0,56.0,-100.00,SSE,150,3.0,6.0,89,0.00,,,-99.99,,2013-04-10 15:03:00,
2013-04-10 11:12:00,56.0,54.0,-100.00,SE,145,4.0,10.0,92,0.00,,,-99.99,,2013-04-10 15:12:00,
2013-04-10 11:22:00,55.0,54.0,-100.00,South,170,6.0,9.0,94,0.00,,,-99.99,,2013-04-10 15:22:00,
2013-04-10 11:33:00,54.0,53.0,-100.00,SSE,155,3.0,7.0,95,0.00,,,-99.99,,2013-04-10 15:33:00,
2013-04-10 11:42:00,54.0,53.0,-100.00,South,185,3.0,4.0,96,0.00,,,-99.99,,2013-04-10 15:42:00,
2013-04-10 11:52:00,54.0,53.0,-100.00,South,190,3.0,4.0,96,3.39,,,-99.99,,2013-04-10 15:52:00,
2013-04-10 12:03:00,54.0,53.0,-100.00,South,175,4.0,6.0,96,2.24,,,-99.99,,2013-04-10 16:03:00,
2013-04-10 12:13:00,54.0,53.0,-100.00,South,190,4.0,5.0,97,0.00,,,-99.99,,2013-04-10 16:13:00,
2013-04-10 12:23:00,54.0,53.0,-100.00,SW,225,3.0,5.0,97,0.00,,,-99.99,,2013-04-10 16:23:00,
2013-04-10 12:33:00,54.0,53.0,-100.00,SW,215,1.0,5.0,97,0.55,,,-99.99,,2013-04-10 16:33:00,
2013-04-10 12:43:00,53.0,53.0,-100.00,East,95,6.0,11.0,97,0.00,,,-99.99,,2013-04-10 16:43:00,
2013-04-10 12:52:00,52.0,51.0,-100.00,SSE,160,1.0,10.0,97,14.72,,,-99.99,,2013-04-10 16:52:00,
2013-04-10 13:03:00,50.0,50.0,-100.00,SW,230,4.0,6.0,97,0.00,,,-99.99,,2013-04-10 17:03:00,
2013-04-10 13:12:00,51.0,50.0,-100.00,SW,225,0.0,6.0,97,1.10,,,-99.99,,2013-04-10 17:12:00,
2013-04-10 13:22:00,51.0,51.0,-100.00,East,100,6.0,9.0,97,0.00,,,-99.99,,2013-04-10 17:22:00,
2013-04-10 13:33:00,51.0,50.0,-100.00,East,95,0.0,6.0,97,0.00,,,-99.99,,2013-04-10 17:33:00,
2013-04-10 13:43:00,52.0,51.0,-100.00,SW,230,6.0,7.0,97,0.00,,,-99.99,,2013-04-10 17:43:00,
2013-04-10 13:52:00,53.0,52.0,-100.00,WSW,250,1.0,10.0,97,0.00,,,-99.99,,2013-04-10 17:52:00,
2013-04-10 14:03:00,56.0,55.0,-100.00,NNE,30,4.0,6.0,97,0.00,,,-99.99,,2013-04-10 18:03:00,
2013-04-10 14:12:00,59.0,59.0,-100.00,NE,45,4.0,6.0,97,0.00,,,-99.99,,2013-04-10 18:12:00,
2013-04-10 14:23:00,59.0,59.0,-100.00,NE,45,4.0,6.0,97,0.00,,,-99.99,,2013-04-10 18:23:00,
2013-04-10 14:33:00,63.0,62.0,-100.00,NNE,25,2.0,6.0,97,0.00,,,-99.99,,2013-04-10 18:33:00,
2013-04-10 14:42:00,65.0,64.0,-100.00,North,10,6.0,9.0,97,0.00,,,-99.99,,2013-04-10 18:42:00,
2013-04-10 14:52:00,66.0,65.0,-100.00,North,0,9.0,15.0,97,0.00,,,-99.99,,2013-04-10 18:52:00,
2013-04-10 15:03:00,67.0,65.0,-100.00,North,350,9.0,17.0,91,0.00,,,-99.99,,2013-04-10 19:03:00,
2013-04-10 15:12:00,68.0,64.0,-100.00,North,0,7.0,22.0,84,0.00,,,-99.99,,2013-04-10 19:12:00,
2013-04-10 15:22:00,69.0,63.0,-100.00,NNW,345,7.0,17.0,82,0.00,,,-99.99,,2013-04-10 19:22:00,
2013-04-10 15:33:00,69.0,63.0,-100.00,NNW,345,7.0,18.0,82,0.00,,,-99.99,,2013-04-10 19:33:00,
2013-04-10 15:42:00,59.0,55.0,-100.00,East,90,12.0,24.0,87,0.00,,,-99.99,,2013-04-10 19:42:00,
2013-04-10 15:52:00,54.0,51.0,-100.00,East,80,4.0,29.0,91,30.04,,,-99.99,,2013-04-10 19:52:00,
2013-04-10 16:03:00,52.0,50.0,-100.00,East,100,7.0,21.0,94,0.00,,,-99.99,,2013-04-10 20:03:00,
2013-04-10 16:12:00,54.0,53.0,-100.00,East,80,8.0,9.0,95,0.00,,,-99.99,,2013-04-10 20:12:00,
2013-04-10 16:23:00,54.0,53.0,-100.00,East,100,4.0,9.0,96,0.00,,,-99.99,,2013-04-10 20:23:00,
2013-04-10 16:33:00,54.0,53.0,-100.00,East,100,4.0,9.0,96,0.00,,,-99.99,,2013-04-10 20:33:00,
2013-04-10 16:42:00,55.0,53.0,-100.00,SW,225,2.0,4.0,96,0.00,,,-99.99,,2013-04-10 20:42:00,
2013-04-10 16:52:00,55.0,54.0,-100.00,SW,220,0.0,2.0,96,0.00,,,-99.99,,2013-04-10 20:52:00,
2013-04-10 17:03:00,54.0,53.0,-100.00,ESE,110,7.0,11.0,96,0.00,,,-99.99,,2013-04-10 21:03:00,
2013-04-10 17:13:00,48.0,47.0,-100.00,South,175,3.0,19.0,96,1.69,,,-99.99,,2013-04-10 21:13:00,
2013-04-10 17:22:00,49.0,48.0,-100.00,East,80,3.0,8.0,96,0.00,,,-99.99,,2013-04-10 21:22:00,
2013-04-10 17:33:00,49.0,48.0,-100.00,South,180,5.0,9.0,96,0.55,,,-99.99,,2013-04-10 21:33:00,
2013-04-10 17:43:00,49.0,49.0,-100.00,NE,35,4.0,11.0,97,15.28,,,-99.99,,2013-04-10 21:43:00,
2013-04-10 17:53:00,52.0,51.0,-100.00,NNW,330,10.0,11.0,97,0.00,,,-99.99,,2013-04-10 21:53:00,
2013-04-10 18:03:00,55.0,54.0,-100.00,NNE,15,3.0,7.0,97,0.00,,,-99.99,,2013-04-10 22:03:00,
2013-04-10 18:13:00,56.0,55.0,-100.00,North,10,2.0,6.0,97,0.55,,,-99.99,,2013-04-10 22:13:00,
2013-04-10 18:23:00,56.0,55.0,-100.00,SE,140,0.0,3.0,97,0.00,,,-99.99,,2013-04-10 22:23:00,
2013-04-10 18:34:00,53.0,52.0,-100.00,ESE,115,10.0,15.0,97,0.00,,,-99.99,,2013-04-10 22:34:00,
2013-04-10 18:42:00,47.0,47.0,-100.00,East,95,13.0,18.0,97,0.00,,,-99.99,,2013-04-10 22:42:00,
2013-04-10 18:52:00,47.0,46.0,-100.00,SE,145,5.0,16.0,97,0.00,,,-99.99,,2013-04-10 22:52:00,
2013-04-10 19:03:00,47.0,46.0,-100.00,SE,130,2.0,9.0,97,0.00,,,-99.99,,2013-04-10 23:03:00,
2013-04-10 19:12:00,46.0,46.0,-100.00,ESE,105,7.0,9.0,97,0.00,,,-99.99,,2013-04-10 23:12:00,
2013-04-10 19:22:00,45.0,45.0,-100.00,East,100,7.0,12.0,97,0.00,,,-99.99,,2013-04-10 23:22:00,
2013-04-10 19:33:00,44.0,43.0,-100.00,ESE,115,8.0,12.0,98,0.00,,,-99.99,,2013-04-10 23:33:00,
2013-04-10 19:42:00,42.0,42.0,-100.00,ESE,120,4.0,13.0,98,0.00,,,-99.99,,2013-04-10 23:42:00,
2013-04-10 19:52:00,42.0,42.0,-100.00,ESE,120,4.0,13.0,98,0.00,,,-99.99,,2013-04-10 23:52:00,
2013-04-10 20:02:00,41.0,41.0,-100.00,ESE,105,3.0,11.0,98,0.00,,,-99.99,,2013-04-11 00:02:00,
2013-04-10 20:13:00,41.0,41.0,-100.00,SSW,195,4.0,13.0,98,0.00,,,-99.99,,2013-04-11 00:13:00,
2013-04-10 20:22:00,41.0,41.0,-100.00,SSW,200,4.0,11.0,98,0.00,,,-99.99,,2013-04-11 00:22:00,
2013-04-10 20:32:00,41.0,40.0,-100.00,SSE,160,1.0,7.0,98,0.00,,,-99.99,,2013-04-11 00:32:00,
2013-04-10 20:42:00,41.0,41.0,-100.00,ESE,105,1.0,5.0,98,1.69,,,-99.99,,2013-04-11 00:42:00,
2013-04-10 20:52:00,41.0,41.0,-100.00,ESE,105,5.0,11.0,98,1.10,,,-99.99,,2013-04-11 00:52:00,
2013-04-10 21:02:00,41.0,41.0,-100.00,ESE,105,4.0,7.0,98,3.94,,,-99.99,,2013-04-11 01:02:00,
2013-04-10 21:12:00,41.0,41.0,-100.00,SSE,160,1.0,7.0,98,2.83,,,-99.99,,2013-04-11 01:12:00,
2013-04-10 21:22:00,41.0,40.0,-100.00,South,185,7.0,11.0,98,3.39,,,-99.99,,2013-04-11 01:22:00,
2013-04-10 21:32:00,41.0,40.0,-100.00,South,185,7.0,11.0,98,3.39,,,-99.99,,2013-04-11 01:32:00,
2013-04-10 21:42:00,41.0,40.0,-100.00,South,175,13.0,19.0,99,1.69,,,-99.99,,2013-04-11 01:42:00,
2013-04-10 21:52:00,41.0,40.0,-100.00,South,175,11.0,22.0,99,0.55,,,-99.99,,2013-04-11 01:52:00,
2013-04-10 22:03:00,41.0,41.0,-100.00,South,170,9.0,16.0,99,0.00,,,-99.99,,2013-04-11 02:03:00,
2013-04-10 22:12:00,41.0,41.0,-100.00,East,95,1.0,12.0,99,0.00,,,-99.99,,2013-04-11 02:12:00,
2013-04-10 22:22:00,41.0,41.0,-100.00,South,180,6.0,11.0,99,0.00,,,-99.99,,2013-04-11 02:22:00,
2013-04-10 22:32:00,41.0,41.0,-100.00,SSW,205,9.0,13.0,99,0.00,,,-99.99,,2013-04-11 02:32:00,
2013-04-10 22:42:00,41.0,41.0,-100.00,SSW,205,9.0,13.0,99,0.00,,,-99.99,,2013-04-11 02:42:00,
2013-04-10 22:52:00,41.0,41.0,-100.00,SSW,200,7.0,11.0,99,0.00,,,-99.99,,2013-04-11 02:52:00,
2013-04-10 23:02:00,41.0,41.0,-100.00,SSW,200,6.0,10.0,99,0.00,,,-99.99,,2013-04-11 03:02:00,
2013-04-10 23:12:00,41.0,41.0,-100.00,SSW,200,6.0,10.0,99,0.00,,,-99.99,,2013-04-11 03:12:00,
2013-04-10 23:22:00,41.0,41.0,-100.00,South,185,8.0,10.0,99,0.00,,,-99.99,,2013-04-11 03:22:00,
2013-04-10 23:33:00,41.0,41.0,-100.00,South,175,7.0,11.0,99,0.00,,,-99.99,,2013-04-11 03:33:00,
2013-04-10 23:43:00,41.0,41.0,-100.00,South,170,6.0,11.0,99,0.00,,,-99.99,,2013-04-11 03:43:00,
2013-04-10 23:54:00,41.0,41.0,-100.00,South,180,4.0,9.0,99,0.00,,,-99.99,,2013-04-11 03:54:00,